Ellisburg, Pennsylvania
Current Conditions -  °F | °C
As of 3:56 AM on Wednesday 22 Oct 2014 (Local Time) from KELZ Reporting Station
Light Rain Light Rain  
Wind Chill: 38°   Ceiling: 200
Heat Index: 42°   Visibility: 10mi
Dew Point: 41°   Wind: 6mph
Humidity: 96%   Direction: 360°N
Pressure: 30.04"   Gusts: NA
Location:  41.915°N, 77.8855°W
Report Text: KELZ 220756Z AUTO 36005KT 10SM -RA OVC002 06/05 A3004 RMK AO2 RAB55 SLP180 P0000 T00560050
Loading
Personal Weather Stations






























Interactive Weather Map New forecast layout! Learn more

10-Day Weather Forecast

Advertisements
Track Severe Weather on mobile